sensor_id;sensor_type;location;lat;lon;timestamp;P1;durP1;ratioP1;P2;durP2;ratioP2
74849;SDS011;63397;47.480;19.238;2023-11-19T00:02:48;5.35;;;1.38;;
74849;SDS011;63397;47.480;19.238;2023-11-19T00:05:50;9.77;;;3.72;;
74849;SDS011;63397;47.480;19.238;2023-11-19T00:08:52;6.17;;;2.67;;
74849;SDS011;63397;47.480;19.238;2023-11-19T00:11:55;8.40;;;3.93;;
74849;SDS011;63397;47.480;19.238;2023-11-19T00:14:57;8.57;;;3.38;;
74849;SDS011;63397;47.480;19.238;2023-11-19T00:17:59;3.55;;;2.20;;
74849;SDS011;63397;47.480;19.238;2023-11-19T00:21:03;6.50;;;3.20;;
74849;SDS011;63397;47.480;19.238;2023-11-19T00:24:05;13.93;;;3.17;;
74849;SDS011;63397;47.480;19.238;2023-11-19T00:27:08;5.20;;;2.60;;
74849;SDS011;63397;47.480;19.238;2023-11-19T00:30:11;6.22;;;3.72;;
74849;SDS011;63397;47.480;19.238;2023-11-19T00:33:14;5.00;;;2.63;;
74849;SDS011;63397;47.480;19.238;2023-11-19T00:36:16;9.00;;;3.50;;
74849;SDS011;63397;47.480;19.238;2023-11-19T00:39:18;7.00;;;2.63;;
74849;SDS011;63397;47.480;19.238;2023-11-19T00:42:23;8.77;;;3.63;;
74849;SDS011;63397;47.480;19.238;2023-11-19T00:45:26;15.07;;;3.78;;
74849;SDS011;63397;47.480;19.238;2023-11-19T00:48:29;7.05;;;2.45;;
74849;SDS011;63397;47.480;19.238;2023-11-19T00:51:31;8.80;;;2.95;;
74849;SDS011;63397;47.480;19.238;2023-11-19T00:54:33;7.70;;;2.70;;
74849;SDS011;63397;47.480;19.238;2023-11-19T00:57:35;14.47;;;5.03;;
74849;SDS011;63397;47.480;19.238;2023-11-19T01:00:38;12.80;;;3.47;;
74849;SDS011;63397;47.480;19.238;2023-11-19T01:03:40;11.13;;;3.65;;
74849;SDS011;63397;47.480;19.238;2023-11-19T01:06:43;8.30;;;3.22;;
74849;SDS011;63397;47.480;19.238;2023-11-19T01:09:48;7.07;;;3.77;;
74849;SDS011;63397;47.480;19.238;2023-11-19T01:12:50;8.87;;;3.73;;
74849;SDS011;63397;47.480;19.238;2023-11-19T01:15:52;6.13;;;3.13;;
74849;SDS011;63397;47.480;19.238;2023-11-19T01:18:55;5.03;;;2.72;;
74849;SDS011;63397;47.480;19.238;2023-11-19T01:22:16;6.05;;;3.13;;
74849;SDS011;63397;47.480;19.238;2023-11-19T01:25:18;11.83;;;4.17;;
74849;SDS011;63397;47.480;19.238;2023-11-19T01:28:22;5.53;;;3.90;;
74849;SDS011;63397;47.480;19.238;2023-11-19T01:31:24;3.58;;;2.40;;
74849;SDS011;63397;47.480;19.238;2023-11-19T01:34:26;4.20;;;2.38;;
74849;SDS011;63397;47.480;19.238;2023-11-19T01:37:29;3.90;;;2.28;;
74849;SDS011;63397;47.480;19.238;2023-11-19T01:40:31;8.40;;;2.50;;
74849;SDS011;63397;47.480;19.238;2023-11-19T01:43:37;7.60;;;3.80;;
74849;SDS011;63397;47.480;19.238;2023-11-19T01:46:40;8.30;;;3.58;;
74849;SDS011;63397;47.480;19.238;2023-11-19T01:49:44;5.43;;;3.22;;
74849;SDS011;63397;47.480;19.238;2023-11-19T01:52:47;4.15;;;2.47;;
74849;SDS011;63397;47.480;19.238;2023-11-19T01:55:49;4.83;;;2.30;;
74849;SDS011;63397;47.480;19.238;2023-11-19T01:58:52;5.93;;;2.40;;
74849;SDS011;63397;47.480;19.238;2023-11-19T02:01:56;6.25;;;3.03;;
74849;SDS011;63397;47.480;19.238;2023-11-19T02:05:01;5.20;;;2.35;;
74849;SDS011;63397;47.480;19.238;2023-11-19T02:08:04;6.85;;;2.92;;
74849;SDS011;63397;47.480;19.238;2023-11-19T02:11:06;10.27;;;4.27;;
74849;SDS011;63397;47.480;19.238;2023-11-19T02:14:09;8.57;;;3.40;;
74849;SDS011;63397;47.480;19.238;2023-11-19T02:17:28;4.72;;;2.15;;
74849;SDS011;63397;47.480;19.238;2023-11-19T02:20:31;4.70;;;2.40;;
74849;SDS011;63397;47.480;19.238;2023-11-19T02:23:33;6.93;;;2.97;;
74849;SDS011;63397;47.480;19.238;2023-11-19T02:29:38;8.00;;;3.93;;
74849;SDS011;63397;47.480;19.238;2023-11-19T02:32:43;4.22;;;2.75;;
74849;SDS011;63397;47.480;19.238;2023-11-19T02:35:45;5.20;;;3.15;;
74849;SDS011;63397;47.480;19.238;2023-11-19T02:38:48;2.45;;;1.75;;
74849;SDS011;63397;47.480;19.238;2023-11-19T02:41:50;7.60;;;2.10;;
74849;SDS011;63397;47.480;19.238;2023-11-19T02:44:55;5.70;;;2.73;;
74849;SDS011;63397;47.480;19.238;2023-11-19T02:47:57;8.82;;;3.72;;
74849;SDS011;63397;47.480;19.238;2023-11-19T02:50:59;9.82;;;2.75;;
74849;SDS011;63397;47.480;19.238;2023-11-19T02:54:01;6.38;;;3.40;;
74849;SDS011;63397;47.480;19.238;2023-11-19T02:57:05;4.93;;;2.63;;
74849;SDS011;63397;47.480;19.238;2023-11-19T03:00:11;5.83;;;2.80;;
74849;SDS011;63397;47.480;19.238;2023-11-19T03:03:14;10.63;;;3.92;;
74849;SDS011;63397;47.480;19.238;2023-11-19T03:06:23;5.00;;;2.50;;
74849;SDS011;63397;47.480;19.238;2023-11-19T03:09:25;5.45;;;2.47;;
74849;SDS011;63397;47.480;19.238;2023-11-19T03:12:27;4.33;;;2.17;;
74849;SDS011;63397;47.480;19.238;2023-11-19T03:15:29;2.87;;;1.90;;
74849;SDS011;63397;47.480;19.238;2023-11-19T03:18:32;10.40;;;3.95;;
74849;SDS011;63397;47.480;19.238;2023-11-19T03:21:34;5.65;;;2.53;;
74849;SDS011;63397;47.480;19.238;2023-11-19T03:24:39;4.45;;;2.20;;
74849;SDS011;63397;47.480;19.238;2023-11-19T03:27:41;3.83;;;2.40;;
74849;SDS011;63397;47.480;19.238;2023-11-19T03:30:46;5.10;;;2.43;;
74849;SDS011;63397;47.480;19.238;2023-11-19T03:33:48;5.53;;;2.25;;
74849;SDS011;63397;47.480;19.238;2023-11-19T03:36:51;5.78;;;3.10;;
74849;SDS011;63397;47.480;19.238;2023-11-19T03:39:54;4.25;;;2.33;;
74849;SDS011;63397;47.480;19.238;2023-11-19T03:42:57;4.70;;;2.10;;
74849;SDS011;63397;47.480;19.238;2023-11-19T03:46:00;6.67;;;2.57;;
74849;SDS011;63397;47.480;19.238;2023-11-19T03:49:02;5.00;;;2.95;;
74849;SDS011;63397;47.480;19.238;2023-11-19T03:52:08;4.47;;;2.85;;
74849;SDS011;63397;47.480;19.238;2023-11-19T03:55:21;3.92;;;2.33;;
74849;SDS011;63397;47.480;19.238;2023-11-19T03:58:24;4.07;;;2.37;;
74849;SDS011;63397;47.480;19.238;2023-11-19T04:01:26;6.47;;;2.60;;
74849;SDS011;63397;47.480;19.238;2023-11-19T04:04:29;11.82;;;2.50;;
74849;SDS011;63397;47.480;19.238;2023-11-19T04:07:34;5.55;;;3.15;;
74849;SDS011;63397;47.480;19.238;2023-11-19T04:10:36;7.55;;;3.13;;
74849;SDS011;63397;47.480;19.238;2023-11-19T04:13:38;5.67;;;2.83;;
74849;SDS011;63397;47.480;19.238;2023-11-19T04:16:41;8.80;;;3.50;;
74849;SDS011;63397;47.480;19.238;2023-11-19T04:19:43;8.68;;;2.95;;
74849;SDS011;63397;47.480;19.238;2023-11-19T04:22:45;9.93;;;4.45;;
74849;SDS011;63397;47.480;19.238;2023-11-19T04:25:48;7.95;;;2.97;;
74849;SDS011;63397;47.480;19.238;2023-11-19T04:28:50;8.80;;;2.53;;
74849;SDS011;63397;47.480;19.238;2023-11-19T04:31:54;7.07;;;2.50;;
74849;SDS011;63397;47.480;19.238;2023-11-19T04:34:57;7.88;;;3.30;;
74849;SDS011;63397;47.480;19.238;2023-11-19T04:37:59;9.25;;;1.95;;
74849;SDS011;63397;47.480;19.238;2023-11-19T04:41:01;5.03;;;3.25;;
74849;SDS011;63397;47.480;19.238;2023-11-19T04:44:04;7.63;;;3.80;;
74849;SDS011;63397;47.480;19.238;2023-11-19T04:47:06;2.67;;;1.70;;
74849;SDS011;63397;47.480;19.238;2023-11-19T04:50:08;7.25;;;4.40;;
74849;SDS011;63397;47.480;19.238;2023-11-19T04:53:14;10.52;;;2.92;;
74849;SDS011;63397;47.480;19.238;2023-11-19T04:56:17;6.30;;;2.65;;
74849;SDS011;63397;47.480;19.238;2023-11-19T04:59:21;5.37;;;2.43;;
74849;SDS011;63397;47.480;19.238;2023-11-19T05:02:24;5.23;;;2.93;;
74849;SDS011;63397;47.480;19.238;2023-11-19T05:05:26;4.85;;;1.88;;
74849;SDS011;63397;47.480;19.238;2023-11-19T05:08:29;6.90;;;2.58;;
74849;SDS011;63397;47.480;19.238;2023-11-19T05:11:31;5.30;;;2.78;;
74849;SDS011;63397;47.480;19.238;2023-11-19T05:14:33;8.17;;;3.03;;
74849;SDS011;63397;47.480;19.238;2023-11-19T05:17:36;5.70;;;3.33;;
74849;SDS011;63397;47.480;19.238;2023-11-19T05:20:39;6.22;;;3.17;;
74849;SDS011;63397;47.480;19.238;2023-11-19T05:23:41;3.03;;;1.58;;
74849;SDS011;63397;47.480;19.238;2023-11-19T05:26:44;5.00;;;3.05;;
74849;SDS011;63397;47.480;19.238;2023-11-19T05:29:46;6.03;;;3.33;;
74849;SDS011;63397;47.480;19.238;2023-11-19T05:32:48;8.57;;;3.63;;
74849;SDS011;63397;47.480;19.238;2023-11-19T05:35:50;6.75;;;2.67;;
74849;SDS011;63397;47.480;19.238;2023-11-19T05:38:53;5.15;;;3.28;;
74849;SDS011;63397;47.480;19.238;2023-11-19T05:41:55;4.97;;;3.00;;
74849;SDS011;63397;47.480;19.238;2023-11-19T05:44:57;6.00;;;3.10;;
74849;SDS011;63397;47.480;19.238;2023-11-19T05:47:59;4.83;;;2.87;;
74849;SDS011;63397;47.480;19.238;2023-11-19T05:51:02;4.88;;;2.60;;
74849;SDS011;63397;47.480;19.238;2023-11-19T05:54:06;6.43;;;3.63;;
74849;SDS011;63397;47.480;19.238;2023-11-19T05:57:09;9.00;;;4.10;;
74849;SDS011;63397;47.480;19.238;2023-11-19T06:00:11;4.10;;;2.90;;
74849;SDS011;63397;47.480;19.238;2023-11-19T06:03:15;9.73;;;2.80;;
74849;SDS011;63397;47.480;19.238;2023-11-19T06:06:18;8.18;;;3.15;;
74849;SDS011;63397;47.480;19.238;2023-11-19T06:09:21;6.65;;;2.33;;
74849;SDS011;63397;47.480;19.238;2023-11-19T06:12:25;5.65;;;2.78;;
74849;SDS011;63397;47.480;19.238;2023-11-19T06:15:29;4.00;;;2.10;;
74849;SDS011;63397;47.480;19.238;2023-11-19T06:18:32;7.40;;;2.40;;
74849;SDS011;63397;47.480;19.238;2023-11-19T06:21:34;8.70;;;3.10;;
74849;SDS011;63397;47.480;19.238;2023-11-19T06:24:38;9.88;;;3.95;;
74849;SDS011;63397;47.480;19.238;2023-11-19T06:27:43;5.72;;;3.17;;
74849;SDS011;63397;47.480;19.238;2023-11-19T06:30:46;4.23;;;2.33;;
74849;SDS011;63397;47.480;19.238;2023-11-19T06:33:50;4.23;;;2.90;;
74849;SDS011;63397;47.480;19.238;2023-11-19T06:36:53;5.00;;;2.15;;
74849;SDS011;63397;47.480;19.238;2023-11-19T06:39:55;5.32;;;2.30;;
74849;SDS011;63397;47.480;19.238;2023-11-19T06:42:57;4.03;;;2.08;;
74849;SDS011;63397;47.480;19.238;2023-11-19T06:46:00;4.40;;;2.73;;
74849;SDS011;63397;47.480;19.238;2023-11-19T06:49:02;5.30;;;2.17;;
74849;SDS011;63397;47.480;19.238;2023-11-19T06:52:04;6.03;;;2.33;;
74849;SDS011;63397;47.480;19.238;2023-11-19T06:55:07;8.23;;;2.85;;
74849;SDS011;63397;47.480;19.238;2023-11-19T06:58:10;5.70;;;2.60;;
74849;SDS011;63397;47.480;19.238;2023-11-19T07:01:14;5.33;;;3.07;;
74849;SDS011;63397;47.480;19.238;2023-11-19T07:04:17;6.27;;;3.03;;
74849;SDS011;63397;47.480;19.238;2023-11-19T07:07:19;10.88;;;3.85;;
74849;SDS011;63397;47.480;19.238;2023-11-19T07:10:22;10.52;;;2.10;;
74849;SDS011;63397;47.480;19.238;2023-11-19T07:13:24;10.23;;;3.75;;
74849;SDS011;63397;47.480;19.238;2023-11-19T07:16:27;6.07;;;2.90;;
74849;SDS011;63397;47.480;19.238;2023-11-19T07:19:29;5.57;;;2.20;;
74849;SDS011;63397;47.480;19.238;2023-11-19T07:22:31;5.68;;;3.20;;
74849;SDS011;63397;47.480;19.238;2023-11-19T07:25:34;3.72;;;2.40;;
74849;SDS011;63397;47.480;19.238;2023-11-19T07:28:37;6.35;;;3.00;;
74849;SDS011;63397;47.480;19.238;2023-11-19T07:31:42;7.03;;;3.63;;
74849;SDS011;63397;47.480;19.238;2023-11-19T07:34:46;4.33;;;2.53;;
74849;SDS011;63397;47.480;19.238;2023-11-19T07:37:48;5.32;;;2.85;;
74849;SDS011;63397;47.480;19.238;2023-11-19T07:40:52;7.00;;;2.40;;
74849;SDS011;63397;47.480;19.238;2023-11-19T07:43:57;5.07;;;2.63;;
74849;SDS011;63397;47.480;19.238;2023-11-19T07:46:59;11.00;;;4.03;;
74849;SDS011;63397;47.480;19.238;2023-11-19T07:50:02;7.13;;;2.67;;
74849;SDS011;63397;47.480;19.238;2023-11-19T07:53:04;9.20;;;3.08;;
74849;SDS011;63397;47.480;19.238;2023-11-19T07:56:09;7.60;;;3.30;;
74849;SDS011;63397;47.480;19.238;2023-11-19T07:59:12;8.68;;;3.53;;
74849;SDS011;63397;47.480;19.238;2023-11-19T08:02:14;5.67;;;2.67;;
74849;SDS011;63397;47.480;19.238;2023-11-19T08:05:17;8.00;;;2.40;;
74849;SDS011;63397;47.480;19.238;2023-11-19T08:08:19;9.93;;;4.18;;
74849;SDS011;63397;47.480;19.238;2023-11-19T08:11:21;7.15;;;2.67;;
74849;SDS011;63397;47.480;19.238;2023-11-19T08:14:24;4.03;;;2.28;;
74849;SDS011;63397;47.480;19.238;2023-11-19T08:17:26;11.53;;;3.20;;
74849;SDS011;63397;47.480;19.238;2023-11-19T08:20:29;6.43;;;3.47;;
74849;SDS011;63397;47.480;19.238;2023-11-19T08:23:31;6.72;;;2.92;;
74849;SDS011;63397;47.480;19.238;2023-11-19T08:26:33;7.07;;;2.58;;
74849;SDS011;63397;47.480;19.238;2023-11-19T08:29:36;9.00;;;2.88;;
74849;SDS011;63397;47.480;19.238;2023-11-19T08:32:38;5.37;;;3.13;;
74849;SDS011;63397;47.480;19.238;2023-11-19T08:35:41;8.27;;;3.37;;
74849;SDS011;63397;47.480;19.238;2023-11-19T08:38:43;4.90;;;3.03;;
74849;SDS011;63397;47.480;19.238;2023-11-19T08:41:45;6.10;;;2.97;;
74849;SDS011;63397;47.480;19.238;2023-11-19T08:44:50;7.50;;;3.63;;
74849;SDS011;63397;47.480;19.238;2023-11-19T08:47:56;5.83;;;2.97;;
74849;SDS011;63397;47.480;19.238;2023-11-19T08:50:59;7.63;;;3.27;;
74849;SDS011;63397;47.480;19.238;2023-11-19T08:54:01;8.02;;;3.35;;
74849;SDS011;63397;47.480;19.238;2023-11-19T08:57:03;5.28;;;2.25;;
74849;SDS011;63397;47.480;19.238;2023-11-19T09:00:06;5.78;;;2.47;;
74849;SDS011;63397;47.480;19.238;2023-11-19T09:03:11;7.23;;;3.93;;
74849;SDS011;63397;47.480;19.238;2023-11-19T09:06:13;9.53;;;3.77;;
74849;SDS011;63397;47.480;19.238;2023-11-19T09:09:16;8.75;;;3.97;;
74849;SDS011;63397;47.480;19.238;2023-11-19T09:12:18;9.73;;;3.97;;
74849;SDS011;63397;47.480;19.238;2023-11-19T09:15:20;9.70;;;3.63;;
74849;SDS011;63397;47.480;19.238;2023-11-19T09:18:22;8.63;;;3.50;;
74849;SDS011;63397;47.480;19.238;2023-11-19T09:21:25;9.93;;;3.40;;
74849;SDS011;63397;47.480;19.238;2023-11-19T09:24:27;11.35;;;3.67;;
74849;SDS011;63397;47.480;19.238;2023-11-19T09:27:30;8.80;;;3.88;;
74849;SDS011;63397;47.480;19.238;2023-11-19T09:30:32;9.40;;;3.20;;
74849;SDS011;63397;47.480;19.238;2023-11-19T09:33:36;10.80;;;3.43;;
74849;SDS011;63397;47.480;19.238;2023-11-19T09:36:38;10.00;;;3.93;;
74849;SDS011;63397;47.480;19.238;2023-11-19T09:39:45;7.18;;;3.47;;
74849;SDS011;63397;47.480;19.238;2023-11-19T09:42:48;9.52;;;3.55;;
74849;SDS011;63397;47.480;19.238;2023-11-19T09:45:50;8.88;;;2.85;;
74849;SDS011;63397;47.480;19.238;2023-11-19T09:48:53;9.60;;;3.90;;
74849;SDS011;63397;47.480;19.238;2023-11-19T09:51:58;6.60;;;3.23;;
74849;SDS011;63397;47.480;19.238;2023-11-19T09:55:01;9.02;;;4.25;;
74849;SDS011;63397;47.480;19.238;2023-11-19T09:58:03;8.13;;;3.47;;
74849;SDS011;63397;47.480;19.238;2023-11-19T10:01:07;8.93;;;3.85;;
74849;SDS011;63397;47.480;19.238;2023-11-19T10:04:15;8.20;;;3.87;;
74849;SDS011;63397;47.480;19.238;2023-11-19T10:07:18;6.30;;;3.00;;
74849;SDS011;63397;47.480;19.238;2023-11-19T10:10:20;10.85;;;5.13;;
74849;SDS011;63397;47.480;19.238;2023-11-19T10:13:26;7.07;;;3.92;;
74849;SDS011;63397;47.480;19.238;2023-11-19T10:16:28;9.38;;;3.83;;
74849;SDS011;63397;47.480;19.238;2023-11-19T10:19:34;11.13;;;4.57;;
74849;SDS011;63397;47.480;19.238;2023-11-19T10:22:37;12.17;;;3.97;;
74849;SDS011;63397;47.480;19.238;2023-11-19T10:25:40;9.40;;;3.88;;
74849;SDS011;63397;47.480;19.238;2023-11-19T10:28:42;7.72;;;4.07;;
74849;SDS011;63397;47.480;19.238;2023-11-19T10:31:57;8.05;;;3.83;;
74849;SDS011;63397;47.480;19.238;2023-11-19T10:35:19;6.83;;;3.67;;
74849;SDS011;63397;47.480;19.238;2023-11-19T10:38:22;7.83;;;2.83;;
74849;SDS011;63397;47.480;19.238;2023-11-19T10:41:28;8.90;;;3.83;;
74849;SDS011;63397;47.480;19.238;2023-11-19T10:44:32;6.82;;;3.25;;
74849;SDS011;63397;47.480;19.238;2023-11-19T10:47:35;10.18;;;4.85;;
74849;SDS011;63397;47.480;19.238;2023-11-19T10:50:42;14.60;;;4.70;;
74849;SDS011;63397;47.480;19.238;2023-11-19T10:53:44;7.47;;;3.10;;
74849;SDS011;63397;47.480;19.238;2023-11-19T10:56:49;11.75;;;3.92;;
74849;SDS011;63397;47.480;19.238;2023-11-19T10:59:58;10.25;;;4.32;;
74849;SDS011;63397;47.480;19.238;2023-11-19T11:03:05;9.02;;;4.72;;
74849;SDS011;63397;47.480;19.238;2023-11-19T11:06:10;8.73;;;3.90;;
74849;SDS011;63397;47.480;19.238;2023-11-19T11:09:13;7.10;;;3.60;;
74849;SDS011;63397;47.480;19.238;2023-11-19T11:12:17;8.13;;;3.45;;
74849;SDS011;63397;47.480;19.238;2023-11-19T11:15:20;7.18;;;2.58;;
74849;SDS011;63397;47.480;19.238;2023-11-19T11:18:22;6.65;;;3.47;;
74849;SDS011;63397;47.480;19.238;2023-11-19T11:21:26;5.13;;;2.10;;
74849;SDS011;63397;47.480;19.238;2023-11-19T11:28:09;6.47;;;2.05;;
74849;SDS011;63397;47.480;19.238;2023-11-19T11:37:32;4.60;;;2.57;;
74849;SDS011;63397;47.480;19.238;2023-11-19T11:40:34;4.17;;;1.83;;
74849;SDS011;63397;47.480;19.238;2023-11-19T11:47:11;7.47;;;2.90;;
74849;SDS011;63397;47.480;19.238;2023-11-19T11:50:17;6.63;;;2.97;;
74849;SDS011;63397;47.480;19.238;2023-11-19T11:53:21;6.77;;;2.60;;
74849;SDS011;63397;47.480;19.238;2023-11-19T11:56:32;6.87;;;2.97;;
74849;SDS011;63397;47.480;19.238;2023-11-19T11:59:56;5.40;;;2.72;;
74849;SDS011;63397;47.480;19.238;2023-11-19T12:02:59;6.88;;;3.35;;
74849;SDS011;63397;47.480;19.238;2023-11-19T12:06:01;11.65;;;3.90;;
74849;SDS011;63397;47.480;19.238;2023-11-19T12:09:04;5.90;;;2.93;;
74849;SDS011;63397;47.480;19.238;2023-11-19T12:12:17;4.57;;;2.20;;
74849;SDS011;63397;47.480;19.238;2023-11-19T12:15:20;7.30;;;3.88;;
74849;SDS011;63397;47.480;19.238;2023-11-19T12:18:28;4.75;;;2.28;;
74849;SDS011;63397;47.480;19.238;2023-11-19T12:21:30;7.50;;;3.10;;
74849;SDS011;63397;47.480;19.238;2023-11-19T12:24:33;6.20;;;2.77;;
74849;SDS011;63397;47.480;19.238;2023-11-19T12:27:36;6.40;;;2.90;;
74849;SDS011;63397;47.480;19.238;2023-11-19T12:30:38;9.40;;;3.00;;
74849;SDS011;63397;47.480;19.238;2023-11-19T12:33:41;9.57;;;3.22;;
74849;SDS011;63397;47.480;19.238;2023-11-19T12:36:43;5.28;;;3.33;;
74849;SDS011;63397;47.480;19.238;2023-11-19T12:39:46;7.87;;;3.10;;
74849;SDS011;63397;47.480;19.238;2023-11-19T12:42:48;4.63;;;2.50;;
74849;SDS011;63397;47.480;19.238;2023-11-19T12:45:51;6.18;;;2.50;;
74849;SDS011;63397;47.480;19.238;2023-11-19T12:48:53;9.25;;;2.75;;
74849;SDS011;63397;47.480;19.238;2023-11-19T12:51:56;4.15;;;2.15;;
74849;SDS011;63397;47.480;19.238;2023-11-19T12:54:58;5.13;;;2.23;;
74849;SDS011;63397;47.480;19.238;2023-11-19T12:58:01;5.10;;;2.57;;
74849;SDS011;63397;47.480;19.238;2023-11-19T13:01:05;6.32;;;2.72;;
74849;SDS011;63397;47.480;19.238;2023-11-19T13:04:17;7.93;;;3.25;;
74849;SDS011;63397;47.480;19.238;2023-11-19T13:07:20;5.50;;;2.10;;
74849;SDS011;63397;47.480;19.238;2023-11-19T13:10:23;5.83;;;2.63;;
74849;SDS011;63397;47.480;19.238;2023-11-19T13:13:25;9.00;;;2.20;;
74849;SDS011;63397;47.480;19.238;2023-11-19T13:16:28;6.47;;;2.85;;
74849;SDS011;63397;47.480;19.238;2023-11-19T13:19:31;5.03;;;2.03;;
74849;SDS011;63397;47.480;19.238;2023-11-19T13:22:39;5.72;;;2.80;;
74849;SDS011;63397;47.480;19.238;2023-11-19T13:25:57;8.87;;;2.87;;
74849;SDS011;63397;47.480;19.238;2023-11-19T13:28:59;7.43;;;2.10;;
74849;SDS011;63397;47.480;19.238;2023-11-19T13:32:01;6.25;;;2.88;;
74849;SDS011;63397;47.480;19.238;2023-11-19T13:35:06;6.82;;;2.65;;
74849;SDS011;63397;47.480;19.238;2023-11-19T13:38:10;6.72;;;2.15;;
74849;SDS011;63397;47.480;19.238;2023-11-19T13:41:13;7.07;;;2.00;;
74849;SDS011;63397;47.480;19.238;2023-11-19T13:44:16;6.40;;;2.03;;
74849;SDS011;63397;47.480;19.238;2023-11-19T13:47:20;6.57;;;2.47;;
74849;SDS011;63397;47.480;19.238;2023-11-19T13:50:22;4.60;;;2.35;;
74849;SDS011;63397;47.480;19.238;2023-11-19T13:53:25;10.32;;;2.72;;
74849;SDS011;63397;47.480;19.238;2023-11-19T13:56:28;8.33;;;3.37;;
74849;SDS011;63397;47.480;19.238;2023-11-19T13:59:30;6.07;;;2.07;;
74849;SDS011;63397;47.480;19.238;2023-11-19T14:02:34;4.97;;;2.28;;
74849;SDS011;63397;47.480;19.238;2023-11-19T14:05:37;6.28;;;2.33;;
74849;SDS011;63397;47.480;19.238;2023-11-19T14:08:39;7.85;;;2.10;;
74849;SDS011;63397;47.480;19.238;2023-11-19T14:11:43;6.73;;;2.47;;
74849;SDS011;63397;47.480;19.238;2023-11-19T14:14:45;4.50;;;2.00;;
74849;SDS011;63397;47.480;19.238;2023-11-19T14:17:48;7.10;;;2.55;;
74849;SDS011;63397;47.480;19.238;2023-11-19T14:20:50;4.47;;;2.00;;
74849;SDS011;63397;47.480;19.238;2023-11-19T14:23:53;5.80;;;2.08;;
74849;SDS011;63397;47.480;19.238;2023-11-19T14:26:55;3.33;;;1.90;;
74849;SDS011;63397;47.480;19.238;2023-11-19T14:30:00;6.63;;;2.60;;
74849;SDS011;63397;47.480;19.238;2023-11-19T14:33:02;5.63;;;2.15;;
74849;SDS011;63397;47.480;19.238;2023-11-19T14:36:06;4.40;;;1.92;;
74849;SDS011;63397;47.480;19.238;2023-11-19T14:39:09;6.47;;;2.55;;
74849;SDS011;63397;47.480;19.238;2023-11-19T14:42:11;7.33;;;2.87;;
74849;SDS011;63397;47.480;19.238;2023-11-19T14:45:14;6.43;;;2.47;;
74849;SDS011;63397;47.480;19.238;2023-11-19T14:48:16;9.63;;;3.67;;
74849;SDS011;63397;47.480;19.238;2023-11-19T14:51:20;7.72;;;2.67;;
74849;SDS011;63397;47.480;19.238;2023-11-19T14:54:22;5.57;;;2.42;;
74849;SDS011;63397;47.480;19.238;2023-11-19T14:57:26;8.10;;;2.83;;
74849;SDS011;63397;47.480;19.238;2023-11-19T15:00:28;6.07;;;2.87;;
74849;SDS011;63397;47.480;19.238;2023-11-19T15:03:31;6.45;;;2.70;;
74849;SDS011;63397;47.480;19.238;2023-11-19T15:06:56;6.97;;;2.70;;
74849;SDS011;63397;47.480;19.238;2023-11-19T15:09:59;5.07;;;2.00;;
74849;SDS011;63397;47.480;19.238;2023-11-19T15:13:03;4.83;;;2.23;;
74849;SDS011;63397;47.480;19.238;2023-11-19T15:16:06;8.67;;;3.60;;
74849;SDS011;63397;47.480;19.238;2023-11-19T15:19:09;7.47;;;3.08;;
74849;SDS011;63397;47.480;19.238;2023-11-19T15:22:11;9.25;;;2.83;;
74849;SDS011;63397;47.480;19.238;2023-11-19T15:25:13;5.82;;;2.35;;
74849;SDS011;63397;47.480;19.238;2023-11-19T15:28:16;8.77;;;3.47;;
74849;SDS011;63397;47.480;19.238;2023-11-19T15:31:18;9.50;;;3.60;;
74849;SDS011;63397;47.480;19.238;2023-11-19T15:34:21;10.25;;;3.17;;
74849;SDS011;63397;47.480;19.238;2023-11-19T15:37:23;7.32;;;3.25;;
74849;SDS011;63397;47.480;19.238;2023-11-19T15:40:25;7.30;;;2.47;;
74849;SDS011;63397;47.480;19.238;2023-11-19T15:43:29;7.50;;;2.50;;
74849;SDS011;63397;47.480;19.238;2023-11-19T15:46:31;8.77;;;3.23;;
74849;SDS011;63397;47.480;19.238;2023-11-19T15:49:34;9.27;;;3.17;;
74849;SDS011;63397;47.480;19.238;2023-11-19T15:52:36;9.85;;;3.60;;
74849;SDS011;63397;47.480;19.238;2023-11-19T15:55:40;6.30;;;3.10;;
74849;SDS011;63397;47.480;19.238;2023-11-19T15:58:42;10.10;;;3.00;;
74849;SDS011;63397;47.480;19.238;2023-11-19T16:01:45;6.70;;;2.63;;
74849;SDS011;63397;47.480;19.238;2023-11-19T16:04:47;10.18;;;4.20;;
74849;SDS011;63397;47.480;19.238;2023-11-19T16:07:50;8.60;;;2.70;;
74849;SDS011;63397;47.480;19.238;2023-11-19T16:10:53;8.73;;;3.63;;
74849;SDS011;63397;47.480;19.238;2023-11-19T16:13:55;8.73;;;3.53;;
74849;SDS011;63397;47.480;19.238;2023-11-19T16:16:57;5.60;;;2.60;;
74849;SDS011;63397;47.480;19.238;2023-11-19T16:20:00;8.77;;;2.80;;
74849;SDS011;63397;47.480;19.238;2023-11-19T16:23:03;7.18;;;3.40;;
74849;SDS011;63397;47.480;19.238;2023-11-19T16:26:06;11.23;;;3.60;;
74849;SDS011;63397;47.480;19.238;2023-11-19T16:29:09;9.10;;;3.90;;
74849;SDS011;63397;47.480;19.238;2023-11-19T16:32:12;8.13;;;3.50;;
74849;SDS011;63397;47.480;19.238;2023-11-19T16:35:14;7.78;;;3.72;;
74849;SDS011;63397;47.480;19.238;2023-11-19T16:38:16;9.85;;;4.65;;
74849;SDS011;63397;47.480;19.238;2023-11-19T16:41:19;10.50;;;3.90;;
74849;SDS011;63397;47.480;19.238;2023-11-19T16:44:36;9.27;;;4.33;;
74849;SDS011;63397;47.480;19.238;2023-11-19T16:47:39;9.93;;;4.10;;
74849;SDS011;63397;47.480;19.238;2023-11-19T16:50:41;13.82;;;5.30;;
74849;SDS011;63397;47.480;19.238;2023-11-19T16:53:45;9.32;;;4.28;;
74849;SDS011;63397;47.480;19.238;2023-11-19T16:56:48;13.23;;;4.10;;
74849;SDS011;63397;47.480;19.238;2023-11-19T16:59:50;9.60;;;4.83;;
74849;SDS011;63397;47.480;19.238;2023-11-19T17:02:58;10.30;;;4.37;;
74849;SDS011;63397;47.480;19.238;2023-11-19T17:06:05;12.48;;;4.53;;
74849;SDS011;63397;47.480;19.238;2023-11-19T17:09:07;11.02;;;4.88;;
74849;SDS011;63397;47.480;19.238;2023-11-19T17:12:14;12.38;;;5.35;;
74849;SDS011;63397;47.480;19.238;2023-11-19T17:15:17;13.93;;;5.63;;
74849;SDS011;63397;47.480;19.238;2023-11-19T17:18:19;17.07;;;5.83;;
74849;SDS011;63397;47.480;19.238;2023-11-19T17:21:22;11.02;;;4.28;;
74849;SDS011;63397;47.480;19.238;2023-11-19T17:24:27;7.72;;;4.45;;
74849;SDS011;63397;47.480;19.238;2023-11-19T17:27:30;18.13;;;4.90;;
74849;SDS011;63397;47.480;19.238;2023-11-19T17:30:32;10.10;;;4.70;;
74849;SDS011;63397;47.480;19.238;2023-11-19T17:33:37;12.23;;;5.90;;
74849;SDS011;63397;47.480;19.238;2023-11-19T17:36:39;13.75;;;5.53;;
74849;SDS011;63397;47.480;19.238;2023-11-19T17:39:43;11.27;;;4.63;;
74849;SDS011;63397;47.480;19.238;2023-11-19T17:42:46;12.80;;;5.22;;
74849;SDS011;63397;47.480;19.238;2023-11-19T17:45:48;12.80;;;5.40;;
74849;SDS011;63397;47.480;19.238;2023-11-19T17:48:51;17.27;;;7.60;;
74849;SDS011;63397;47.480;19.238;2023-11-19T17:51:54;17.30;;;7.53;;
74849;SDS011;63397;47.480;19.238;2023-11-19T17:54:57;19.73;;;8.70;;
74849;SDS011;63397;47.480;19.238;2023-11-19T17:57:59;15.65;;;6.75;;
74849;SDS011;63397;47.480;19.238;2023-11-19T18:01:03;13.30;;;5.77;;
74849;SDS011;63397;47.480;19.238;2023-11-19T18:04:05;14.67;;;6.20;;
74849;SDS011;63397;47.480;19.238;2023-11-19T18:07:08;13.88;;;6.65;;
74849;SDS011;63397;47.480;19.238;2023-11-19T18:10:11;15.13;;;5.82;;
74849;SDS011;63397;47.480;19.238;2023-11-19T18:13:13;13.90;;;4.93;;
74849;SDS011;63397;47.480;19.238;2023-11-19T18:16:19;15.33;;;4.90;;
74849;SDS011;63397;47.480;19.238;2023-11-19T18:19:21;11.83;;;4.27;;
74849;SDS011;63397;47.480;19.238;2023-11-19T18:22:27;12.10;;;4.38;;
74849;SDS011;63397;47.480;19.238;2023-11-19T18:25:29;12.18;;;4.75;;